sensor_id;sensor_type;location;lat;lon;timestamp;pressure;altitude;pressure_sealevel;temperature;humidity
39267;BME280;24967;51.154;13.812;2023-05-25T00:00:09;100216.13;;;9.32;69.86
39267;BME280;24967;51.154;13.812;2023-05-25T00:02:35;100217.44;;;9.38;69.89
39267;BME280;24967;51.154;13.812;2023-05-25T00:05:02;100211.00;;;9.40;70.02
39267;BME280;24967;51.154;13.812;2023-05-25T00:07:29;100214.63;;;9.39;69.91
39267;BME280;24967;51.154;13.812;2023-05-25T00:09:55;100211.91;;;9.30;69.88
39267;BME280;24967;51.154;13.812;2023-05-25T00:12:22;100207.94;;;9.24;70.58
39267;BME280;24967;51.154;13.812;2023-05-25T00:14:49;100219.78;;;9.20;70.02
39267;BME280;24967;51.154;13.812;2023-05-25T00:17:16;100212.75;;;9.19;70.50
39267;BME280;24967;51.154;13.812;2023-05-25T00:19:43;100215.31;;;9.21;70.65
39267;BME280;24967;51.154;13.812;2023-05-25T00:22:09;100215.91;;;9.13;71.26
39267;BME280;24967;51.154;13.812;2023-05-25T00:24:37;100214.75;;;9.06;71.26
39267;BME280;24967;51.154;13.812;2023-05-25T00:27:05;100215.00;;;9.03;70.72
39267;BME280;24967;51.154;13.812;2023-05-25T00:29:32;100221.88;;;9.05;71.11
39267;BME280;24967;51.154;13.812;2023-05-25T00:32:00;100217.50;;;9.04;70.99
39267;BME280;24967;51.154;13.812;2023-05-25T00:34:27;100214.75;;;9.06;71.34
39267;BME280;24967;51.154;13.812;2023-05-25T00:36:53;100220.88;;;9.06;71.04
39267;BME280;24967;51.154;13.812;2023-05-25T00:39:20;100222.94;;;9.03;71.49
39267;BME280;24967;51.154;13.812;2023-05-25T00:41:47;100221.28;;;9.02;71.35
39267;BME280;24967;51.154;13.812;2023-05-25T00:44:14;100213.78;;;8.95;72.17
39267;BME280;24967;51.154;13.812;2023-05-25T00:46:47;100215.00;;;9.03;71.95
39267;BME280;24967;51.154;13.812;2023-05-25T00:49:17;100214.75;;;9.06;71.96
39267;BME280;24967;51.154;13.812;2023-05-25T00:51:43;100213.75;;;9.07;71.66
39267;BME280;24967;51.154;13.812;2023-05-25T00:54:11;100216.41;;;9.07;71.16
39267;BME280;24967;51.154;13.812;2023-05-25T00:56:43;100204.25;;;9.04;71.28
39267;BME280;24967;51.154;13.812;2023-05-25T00:59:11;100207.28;;;9.00;71.38
39267;BME280;24967;51.154;13.812;2023-05-25T01:01:40;100204.88;;;8.97;72.12
39267;BME280;24967;51.154;13.812;2023-05-25T01:04:10;100211.03;;;8.97;72.10
39267;BME280;24967;51.154;13.812;2023-05-25T01:06:43;100208.38;;;8.97;71.63
39267;BME280;24967;51.154;13.812;2023-05-25T01:09:15;100211.38;;;8.92;72.06
39267;BME280;24967;51.154;13.812;2023-05-25T01:11:43;100214.03;;;8.92;71.68
39267;BME280;24967;51.154;13.812;2023-05-25T01:14:10;100213.09;;;8.93;71.77
39267;BME280;24967;51.154;13.812;2023-05-25T01:16:37;100217.19;;;8.86;71.64
39267;BME280;24967;51.154;13.812;2023-05-25T01:19:04;100215.41;;;8.87;71.88
39267;BME280;24967;51.154;13.812;2023-05-25T01:21:35;100221.38;;;8.89;71.91
39267;BME280;24967;51.154;13.812;2023-05-25T01:24:11;100225.63;;;8.91;71.79
39267;BME280;24967;51.154;13.812;2023-05-25T01:26:46;100231.16;;;8.88;71.45
39267;BME280;24967;51.154;13.812;2023-05-25T01:29:14;100220.06;;;8.83;71.13
39267;BME280;24967;51.154;13.812;2023-05-25T01:31:43;100229.63;;;8.75;71.76
39267;BME280;24967;51.154;13.812;2023-05-25T01:34:12;100223.84;;;8.69;71.84
39267;BME280;24967;51.154;13.812;2023-05-25T01:36:40;100229.63;;;8.63;72.38
39267;BME280;24967;51.154;13.812;2023-05-25T01:39:07;100227.72;;;8.65;72.37
39267;BME280;24967;51.154;13.812;2023-05-25T01:41:35;100228.06;;;8.72;72.17
39267;BME280;24967;51.154;13.812;2023-05-25T01:44:01;100234.69;;;8.78;71.92
39267;BME280;24967;51.154;13.812;2023-05-25T01:46:32;100228.06;;;8.72;71.14
39267;BME280;24967;51.154;13.812;2023-05-25T01:49:08;100230.38;;;8.65;71.30
39267;BME280;24967;51.154;13.812;2023-05-25T01:51:52;100234.34;;;8.60;71.46
39267;BME280;24967;51.154;13.812;2023-05-25T01:54:27;100231.53;;;8.61;71.61
39267;BME280;24967;51.154;13.812;2023-05-25T01:56:57;100223.00;;;8.58;71.47
39267;BME280;24967;51.154;13.812;2023-05-25T01:59:26;100217.94;;;8.55;71.44
39267;BME280;24967;51.154;13.812;2023-05-25T02:01:55;100220.00;;;8.51;71.56
39267;BME280;24967;51.154;13.812;2023-05-25T02:04:23;100218.91;;;8.54;71.75
39267;BME280;24967;51.154;13.812;2023-05-25T02:06:51;100227.22;;;8.49;71.16
39267;BME280;24967;51.154;13.812;2023-05-25T02:09:18;100226.25;;;8.50;71.22
39267;BME280;24967;51.154;13.812;2023-05-25T02:11:44;100220.94;;;8.50;71.43
39267;BME280;24967;51.154;13.812;2023-05-25T02:14:11;100227.84;;;8.41;71.19
39267;BME280;24967;51.154;13.812;2023-05-25T02:16:38;100224.53;;;8.38;71.46
39267;BME280;24967;51.154;13.812;2023-05-25T02:19:04;100229.81;;;8.38;70.54
39267;BME280;24967;51.154;13.812;2023-05-25T02:21:31;100235.59;;;8.32;70.78
39267;BME280;24967;51.154;13.812;2023-05-25T02:23:59;100245.59;;;8.28;70.36
39267;BME280;24967;51.154;13.812;2023-05-25T02:26:25;100245.72;;;8.26;70.96
39267;BME280;24967;51.154;13.812;2023-05-25T02:28:52;100249.78;;;8.19;71.04
39267;BME280;24967;51.154;13.812;2023-05-25T02:31:18;100250.75;;;8.18;71.24
39267;BME280;24967;51.154;13.812;2023-05-25T02:33:45;100254.38;;;8.17;71.34
39267;BME280;24967;51.154;13.812;2023-05-25T02:36:11;100243.78;;;8.17;71.01
39267;BME280;24967;51.154;13.812;2023-05-25T02:38:38;100250.25;;;8.13;71.16
39267;BME280;24967;51.154;13.812;2023-05-25T02:41:06;100247.97;;;8.09;70.53
39267;BME280;24967;51.154;13.812;2023-05-25T02:43:32;100240.13;;;7.96;71.39
39267;BME280;24967;51.154;13.812;2023-05-25T02:45:58;100241.53;;;7.89;71.22
39267;BME280;24967;51.154;13.812;2023-05-25T02:48:25;100241.69;;;7.87;71.58
39267;BME280;24967;51.154;13.812;2023-05-25T02:50:51;100242.50;;;7.88;71.33
39267;BME280;24967;51.154;13.812;2023-05-25T02:53:18;100239.13;;;7.86;72.00
39267;BME280;24967;51.154;13.812;2023-05-25T02:55:44;100244.56;;;7.84;72.13
39267;BME280;24967;51.154;13.812;2023-05-25T02:58:12;100245.25;;;7.86;72.08
39267;BME280;24967;51.154;13.812;2023-05-25T03:00:38;100249.47;;;7.89;72.29
39267;BME280;24967;51.154;13.812;2023-05-25T03:03:07;100253.47;;;7.94;71.69
39267;BME280;24967;51.154;13.812;2023-05-25T03:05:33;100251.78;;;7.93;71.59
39267;BME280;24967;51.154;13.812;2023-05-25T03:08:00;100262.63;;;7.90;71.67
39267;BME280;24967;51.154;13.812;2023-05-25T03:10:26;100264.28;;;7.91;72.48
39267;BME280;24967;51.154;13.812;2023-05-25T03:12:53;100267.78;;;7.92;71.64
39267;BME280;24967;51.154;13.812;2023-05-25T03:15:21;100267.91;;;7.90;71.79
39267;BME280;24967;51.154;13.812;2023-05-25T03:17:48;100265.88;;;7.94;71.62
39267;BME280;24967;51.154;13.812;2023-05-25T03:20:15;100271.28;;;7.92;72.24
39267;BME280;24967;51.154;13.812;2023-05-25T03:22:41;100266.84;;;7.93;72.08
39267;BME280;24967;51.154;13.812;2023-05-25T03:25:08;100268.84;;;7.89;71.94
39267;BME280;24967;51.154;13.812;2023-05-25T03:27:36;100270.66;;;7.89;72.48
39267;BME280;24967;51.154;13.812;2023-05-25T03:30:03;100273.31;;;7.89;72.96
39267;BME280;24967;51.154;13.812;2023-05-25T03:35:14;100275.97;;;7.89;72.78
39267;BME280;24967;51.154;13.812;2023-05-25T03:37:40;100275.13;;;7.88;73.33
39267;BME280;24967;51.154;13.812;2023-05-25T03:40:07;100277.75;;;7.88;73.76
39267;BME280;24967;51.154;13.812;2023-05-25T03:42:35;100287.09;;;8.05;74.00
39267;BME280;24967;51.154;13.812;2023-05-25T03:45:02;100285.75;;;7.99;73.92
39267;BME280;24967;51.154;13.812;2023-05-25T03:47:29;100285.16;;;7.96;74.18
39267;BME280;24967;51.154;13.812;2023-05-25T03:49:56;100286.91;;;7.95;75.67
39267;BME280;24967;51.154;13.812;2023-05-25T03:52:23;100290.25;;;7.86;76.12
39267;BME280;24967;51.154;13.812;2023-05-25T03:54:49;100299.69;;;7.90;76.64
39267;BME280;24967;51.154;13.812;2023-05-25T03:57:16;100297.75;;;7.92;76.90
39267;BME280;24967;51.154;13.812;2023-05-25T03:59:42;100304.97;;;7.90;77.09
39267;BME280;24967;51.154;13.812;2023-05-25T04:02:08;100301.97;;;7.95;77.33
39267;BME280;24967;51.154;13.812;2023-05-25T04:04:35;100305.97;;;8.00;77.05
39267;BME280;24967;51.154;13.812;2023-05-25T04:07:03;100309.34;;;8.02;77.16
39267;BME280;24967;51.154;13.812;2023-05-25T04:09:30;100300.34;;;8.05;77.11
39267;BME280;24967;51.154;13.812;2023-05-25T04:11:56;100307.31;;;8.06;76.91
39267;BME280;24967;51.154;13.812;2023-05-25T04:14:23;100315.41;;;8.16;76.97
39267;BME280;24967;51.154;13.812;2023-05-25T04:16:49;100322.66;;;8.25;77.02
39267;BME280;24967;51.154;13.812;2023-05-25T04:19:16;100319.44;;;8.33;77.68
39267;BME280;24967;51.154;13.812;2023-05-25T04:21:42;100328.50;;;8.41;77.60
39267;BME280;24967;51.154;13.812;2023-05-25T04:24:10;100319.97;;;8.49;77.05
39267;BME280;24967;51.154;13.812;2023-05-25T04:26:42;100322.03;;;8.57;77.57
39267;BME280;24967;51.154;13.812;2023-05-25T04:29:10;100312.00;;;8.49;78.62
39267;BME280;24967;51.154;13.812;2023-05-25T04:31:37;100313.38;;;8.66;78.46
39267;BME280;24967;51.154;13.812;2023-05-25T04:34:05;100318.44;;;8.69;78.95
39267;BME280;24967;51.154;13.812;2023-05-25T04:36:33;100303.47;;;8.79;78.89
39267;BME280;24967;51.154;13.812;2023-05-25T04:39:02;100315.28;;;8.86;79.39
39267;BME280;24967;51.154;13.812;2023-05-25T04:41:32;100313.25;;;8.90;80.13
39267;BME280;24967;51.154;13.812;2023-05-25T04:43:59;100324.47;;;9.05;80.42
39267;BME280;24967;51.154;13.812;2023-05-25T04:46:25;100315.28;;;9.09;80.88
39267;BME280;24967;51.154;13.812;2023-05-25T04:48:52;100309.00;;;9.21;81.18
39267;BME280;24967;51.154;13.812;2023-05-25T04:51:23;100309.16;;;9.08;82.60
39267;BME280;24967;51.154;13.812;2023-05-25T04:53:49;100306.81;;;9.26;82.47
39267;BME280;24967;51.154;13.812;2023-05-25T04:56:16;100307.66;;;9.27;83.27
39267;BME280;24967;51.154;13.812;2023-05-25T04:58:44;100300.28;;;9.42;82.65
39267;BME280;24967;51.154;13.812;2023-05-25T05:01:10;100299.69;;;9.38;83.46
39267;BME280;24967;51.154;13.812;2023-05-25T05:03:37;100298.19;;;9.56;83.05
39267;BME280;24967;51.154;13.812;2023-05-25T05:06:03;100309.91;;;9.54;84.76
39267;BME280;24967;51.154;13.812;2023-05-25T05:08:31;100299.88;;;9.90;82.58
39267;BME280;24967;51.154;13.812;2023-05-25T05:10:59;100299.38;;;9.96;82.33
39267;BME280;24967;51.154;13.812;2023-05-25T05:13:26;100297.94;;;10.13;82.10
39267;BME280;24967;51.154;13.812;2023-05-25T05:15:54;100298.34;;;10.08;82.76
39267;BME280;24967;51.154;13.812;2023-05-25T05:18:21;100304.63;;;10.28;82.18
39267;BME280;24967;51.154;13.812;2023-05-25T05:20:47;100299.63;;;10.55;82.68
39267;BME280;24967;51.154;13.812;2023-05-25T05:23:14;100294.34;;;10.86;83.15
39267;BME280;24967;51.154;13.812;2023-05-25T05:25:40;100297.88;;;11.56;83.38
39267;BME280;24967;51.154;13.812;2023-05-25T05:28:09;100292.63;;;12.52;79.49
39267;BME280;24967;51.154;13.812;2023-05-25T05:30:36;100299.84;;;13.34;72.06
39267;BME280;24967;51.154;13.812;2023-05-25T05:33:04;100299.75;;;14.07;67.59
39267;BME280;24967;51.154;13.812;2023-05-25T05:35:30;100309.59;;;14.51;64.37
39267;BME280;24967;51.154;13.812;2023-05-25T05:37:57;100307.47;;;15.23;62.98
39267;BME280;24967;51.154;13.812;2023-05-25T05:40:23;100307.69;;;16.05;62.75
39267;BME280;24967;51.154;13.812;2023-05-25T05:42:50;100311.78;;;16.89;60.60
39267;BME280;24967;51.154;13.812;2023-05-25T05:45:17;100307.03;;;17.38;57.73
39267;BME280;24967;51.154;13.812;2023-05-25T05:47:44;100305.25;;;17.85;56.53
39267;BME280;24967;51.154;13.812;2023-05-25T05:50:11;100303.09;;;18.41;53.65
39267;BME280;24967;51.154;13.812;2023-05-25T05:52:38;100302.81;;;19.04;53.37
39267;BME280;24967;51.154;13.812;2023-05-25T05:55:05;100309.06;;;19.40;53.08
39267;BME280;24967;51.154;13.812;2023-05-25T05:57:31;100303.69;;;19.77;51.66
39267;BME280;24967;51.154;13.812;2023-05-25T06:00:01;100305.75;;;19.96;49.51
39267;BME280;24967;51.154;13.812;2023-05-25T06:02:31;100308.44;;;19.96;47.03
39267;BME280;24967;51.154;13.812;2023-05-25T06:05:00;100300.56;;;19.73;47.75
39267;BME280;24967;51.154;13.812;2023-05-25T06:07:28;100302.53;;;20.07;47.09
39267;BME280;24967;51.154;13.812;2023-05-25T06:09:55;100307.94;;;20.07;46.80
39267;BME280;24967;51.154;13.812;2023-05-25T06:12:21;100307.88;;;19.79;46.77
39267;BME280;24967;51.154;13.812;2023-05-25T06:14:48;100317.75;;;20.15;47.84
39267;BME280;24967;51.154;13.812;2023-05-25T06:17:16;100320.19;;;20.31;46.01
39267;BME280;24967;51.154;13.812;2023-05-25T06:19:43;100310.88;;;20.34;48.32
39267;BME280;24967;51.154;13.812;2023-05-25T06:22:09;100310.94;;;20.19;48.21
39267;BME280;24967;51.154;13.812;2023-05-25T06:24:37;100309.41;;;20.10;46.97
39267;BME280;24967;51.154;13.812;2023-05-25T06:27:04;100308.25;;;19.76;47.10
39267;BME280;24967;51.154;13.812;2023-05-25T06:29:30;100318.44;;;19.44;47.50
39267;BME280;24967;51.154;13.812;2023-05-25T06:31:57;100316.91;;;19.57;47.22
39267;BME280;24967;51.154;13.812;2023-05-25T06:34:23;100316.50;;;19.38;49.92
39267;BME280;24967;51.154;13.812;2023-05-25T06:36:51;100311.78;;;19.77;49.35
39267;BME280;24967;51.154;13.812;2023-05-25T06:39:17;100312.47;;;19.64;48.26
39267;BME280;24967;51.154;13.812;2023-05-25T06:41:45;100325.06;;;19.78;49.50
39267;BME280;24967;51.154;13.812;2023-05-25T06:44:12;100316.59;;;19.81;48.14
39267;BME280;24967;51.154;13.812;2023-05-25T06:46:38;100324.25;;;19.63;48.67
39267;BME280;24967;51.154;13.812;2023-05-25T06:49:05;100323.28;;;19.49;48.29
39267;BME280;24967;51.154;13.812;2023-05-25T06:51:31;100327.59;;;19.14;50.30
39267;BME280;24967;51.154;13.812;2023-05-25T06:53:58;100328.06;;;19.17;50.29
39267;BME280;24967;51.154;13.812;2023-05-25T06:56:25;100325.94;;;18.98;50.62
39267;BME280;24967;51.154;13.812;2023-05-25T06:58:53;100319.97;;;19.03;50.56
39267;BME280;24967;51.154;13.812;2023-05-25T07:01:19;100321.38;;;18.31;53.19
39267;BME280;24967;51.154;13.812;2023-05-25T07:03:46;100329.97;;;18.26;52.36
39267;BME280;24967;51.154;13.812;2023-05-25T07:06:12;100319.63;;;18.38;52.34
39267;BME280;24967;51.154;13.812;2023-05-25T07:08:41;100322.72;;;18.50;52.34
39267;BME280;24967;51.154;13.812;2023-05-25T07:11:08;100331.00;;;18.25;55.14
39267;BME280;24967;51.154;13.812;2023-05-25T07:13:36;100328.91;;;18.36;53.47
39267;BME280;24967;51.154;13.812;2023-05-25T07:16:04;100311.09;;;18.12;53.63
39267;BME280;24967;51.154;13.812;2023-05-25T07:18:31;100316.22;;;18.06;53.62
39267;BME280;24967;51.154;13.812;2023-05-25T07:20:57;100313.94;;;17.95;53.41
39267;BME280;24967;51.154;13.812;2023-05-25T07:23:24;100316.75;;;17.71;52.88
39267;BME280;24967;51.154;13.812;2023-05-25T07:25:51;100315.66;;;17.57;54.11
39267;BME280;24967;51.154;13.812;2023-05-25T07:28:17;100310.50;;;17.47;54.93
39267;BME280;24967;51.154;13.812;2023-05-25T07:30:43;100317.19;;;17.51;55.13
39267;BME280;24967;51.154;13.812;2023-05-25T07:33:11;100310.81;;;17.52;56.17
39267;BME280;24967;51.154;13.812;2023-05-25T07:35:38;100312.94;;;17.65;55.16
39267;BME280;24967;51.154;13.812;2023-05-25T07:38:04;100303.59;;;17.76;54.63
39267;BME280;24967;51.154;13.812;2023-05-25T07:40:30;100303.47;;;18.00;54.00
39267;BME280;24967;51.154;13.812;2023-05-25T07:42:57;100298.31;;;18.14;55.25
39267;BME280;24967;51.154;13.812;2023-05-25T07:45:23;100307.94;;;18.31;52.88
39267;BME280;24967;51.154;13.812;2023-05-25T07:47:50;100307.16;;;18.22;51.31
39267;BME280;24967;51.154;13.812;2023-05-25T07:50:18;100300.91;;;18.07;55.61
39267;BME280;24967;51.154;13.812;2023-05-25T07:52:44;100314.16;;;18.46;55.09
39267;BME280;24967;51.154;13.812;2023-05-25T07:55:11;100311.22;;;18.56;52.71
39267;BME280;24967;51.154;13.812;2023-05-25T07:57:38;100325.03;;;18.76;51.32
39267;BME280;24967;51.154;13.812;2023-05-25T08:00:05;100313.97;;;18.86;53.87
39267;BME280;24967;51.154;13.812;2023-05-25T08:02:32;100326.03;;;19.19;56.47
39267;BME280;24967;51.154;13.812;2023-05-25T08:04:58;100322.09;;;19.37;50.40
39267;BME280;24967;51.154;13.812;2023-05-25T08:07:31;100322.56;;;19.26;53.44
39267;BME280;24967;51.154;13.812;2023-05-25T08:09:57;100328.41;;;19.44;50.02
39267;BME280;24967;51.154;13.812;2023-05-25T08:12:23;100331.75;;;19.46;49.09
39267;BME280;24967;51.154;13.812;2023-05-25T08:14:50;100328.06;;;19.17;50.87
39267;BME280;24967;51.154;13.812;2023-05-25T08:17:18;100322.88;;;19.01;49.84
39267;BME280;24967;51.154;13.812;2023-05-25T08:19:44;100319.44;;;19.07;49.25
39267;BME280;24967;51.154;13.812;2023-05-25T08:22:11;100324.75;;;18.86;49.66
39267;BME280;24967;51.154;13.812;2023-05-25T08:24:38;100323.72;;;18.34;53.70
39267;BME280;24967;51.154;13.812;2023-05-25T08:27:05;100326.06;;;18.67;53.98
39267;BME280;24967;51.154;13.812;2023-05-25T08:29:31;100327.50;;;18.77;51.75
39267;BME280;24967;51.154;13.812;2023-05-25T08:31:58;100329.19;;;18.93;53.73
39267;BME280;24967;51.154;13.812;2023-05-25T08:34:24;100330.19;;;19.37;50.97
39267;BME280;24967;51.154;13.812;2023-05-25T08:36:51;100330.34;;;19.65;49.79
39267;BME280;24967;51.154;13.812;2023-05-25T08:39:17;100325.03;;;19.42;49.20
39267;BME280;24967;51.154;13.812;2023-05-25T08:41:45;100329.09;;;19.16;48.63
39267;BME280;24967;51.154;13.812;2023-05-25T08:44:12;100331.88;;;19.08;49.20
39267;BME280;24967;51.154;13.812;2023-05-25T08:46:39;100329.69;;;18.59;49.14
39267;BME280;24967;51.154;13.812;2023-05-25T08:49:09;100329.69;;;18.59;55.46
39267;BME280;24967;51.154;13.812;2023-05-25T08:51:36;100328.44;;;18.85;49.94
39267;BME280;24967;51.154;13.812;2023-05-25T08:54:06;100334.41;;;18.95;51.00
39267;BME280;24967;51.154;13.812;2023-05-25T08:56:36;100331.31;;;19.28;52.46
39267;BME280;24967;51.154;13.812;2023-05-25T08:59:13;100321.38;;;19.79;56.86
39267;BME280;24967;51.154;13.812;2023-05-25T09:01:43;100334.34;;;20.33;53.70
39267;BME280;24967;51.154;13.812;2023-05-25T09:04:12;100337.09;;;20.40;46.05
39267;BME280;24967;51.154;13.812;2023-05-25T09:06:39;100336.34;;;20.03;46.70
39267;BME280;24967;51.154;13.812;2023-05-25T09:09:06;100339.94;;;19.89;47.92
39267;BME280;24967;51.154;13.812;2023-05-25T09:11:34;100340.69;;;19.83;47.28
39267;BME280;24967;51.154;13.812;2023-05-25T09:14:00;100343.50;;;19.75;49.54
39267;BME280;24967;51.154;13.812;2023-05-25T09:16:29;100343.19;;;19.84;51.09
39267;BME280;24967;51.154;13.812;2023-05-25T09:18:57;100339.66;;;20.05;51.68
39267;BME280;24967;51.154;13.812;2023-05-25T09:21:24;100344.91;;;20.35;52.10
39267;BME280;24967;51.154;13.812;2023-05-25T09:23:50;100350.94;;;20.87;48.63
39267;BME280;24967;51.154;13.812;2023-05-25T09:26:18;100347.84;;;20.90;47.25
39267;BME280;24967;51.154;13.812;2023-05-25T09:28:46;100349.00;;;20.74;46.40
39267;BME280;24967;51.154;13.812;2023-05-25T09:31:13;100344.78;;;20.65;47.32
39267;BME280;24967;51.154;13.812;2023-05-25T09:33:41;100347.19;;;20.53;46.92
39267;BME280;24967;51.154;13.812;2023-05-25T09:36:08;100338.28;;;20.59;49.48
39267;BME280;24967;51.154;13.812;2023-05-25T09:38:34;100338.53;;;20.99;47.76
39267;BME280;24967;51.154;13.812;2023-05-25T09:41:02;100341.41;;;21.25;45.78
39267;BME280;24967;51.154;13.812;2023-05-25T09:43:28;100336.94;;;21.39;44.83
39267;BME280;24967;51.154;13.812;2023-05-25T09:45:55;100350.16;;;20.93;45.84
39267;BME280;24967;51.154;13.812;2023-05-25T09:48:21;100352.63;;;20.59;45.14
39267;BME280;24967;51.154;13.812;2023-05-25T09:50:49;100357.69;;;20.48;45.64
39267;BME280;24967;51.154;13.812;2023-05-25T09:53:17;100351.19;;;20.42;45.93
39267;BME280;24967;51.154;13.812;2023-05-25T09:55:47;100354.13;;;19.98;47.05
39267;BME280;24967;51.154;13.812;2023-05-25T09:58:14;100356.06;;;20.04;50.18
39267;BME280;24967;51.154;13.812;2023-05-25T10:00:40;100357.78;;;20.33;54.74
39267;BME280;24967;51.154;13.812;2023-05-25T10:03:07;100355.00;;;21.04;51.35
39267;BME280;24967;51.154;13.812;2023-05-25T10:08:57;100355.63;;;21.41;50.36
39267;BME280;24967;51.154;13.812;2023-05-25T10:11:24;100345.19;;;21.86;49.85
39267;BME280;24967;51.154;13.812;2023-05-25T10:13:53;100346.72;;;22.22;46.68
39267;BME280;24967;51.154;13.812;2023-05-25T10:16:24;100343.53;;;21.91;44.73
39267;BME280;24967;51.154;13.812;2023-05-25T10:18:54;100352.66;;;21.77;44.23
39267;BME280;24967;51.154;13.812;2023-05-25T10:21:24;100345.78;;;21.75;45.47
39267;BME280;24967;51.154;13.812;2023-05-25T10:23:59;100337.81;;;21.60;45.91
39267;BME280;24967;51.154;13.812;2023-05-25T10:26:31;100331.13;;;21.49;45.04
39267;BME280;24967;51.154;13.812;2023-05-25T10:28:59;100345.78;;;21.75;45.51
39267;BME280;24967;51.154;13.812;2023-05-25T10:31:28;100336.81;;;21.67;44.01
39267;BME280;24967;51.154;13.812;2023-05-25T10:33:58;100340.84;;;21.98;45.36
39267;BME280;24967;51.154;13.812;2023-05-25T10:36:26;100326.88;;;21.88;44.35
39267;BME280;24967;51.154;13.812;2023-05-25T10:38:53;100332.78;;;22.18;43.77
39267;BME280;24967;51.154;13.812;2023-05-25T10:41:20;100327.91;;;21.87;45.41
39267;BME280;24967;51.154;13.812;2023-05-25T10:43:48;100329.59;;;22.01;43.68
39267;BME280;24967;51.154;13.812;2023-05-25T10:46:15;100338.28;;;21.83;43.44
39267;BME280;24967;51.154;13.812;2023-05-25T10:48:45;100337.34;;;21.36;44.28
39267;BME280;24967;51.154;13.812;2023-05-25T10:51:12;100335.72;;;21.14;45.07
39267;BME280;24967;51.154;13.812;2023-05-25T10:53:42;100336.47;;;21.36;45.58
39267;BME280;24967;51.154;13.812;2023-05-25T10:56:09;100334.03;;;21.54;45.16
39267;BME280;24967;51.154;13.812;2023-05-25T10:58:42;100332.47;;;21.32;45.22
39267;BME280;24967;51.154;13.812;2023-05-25T11:01:10;100330.59;;;21.25;47.02
39267;BME280;24967;51.154;13.812;2023-05-25T11:03:47;100323.44;;;21.53;45.80
39267;BME280;24967;51.154;13.812;2023-05-25T11:06:15;100326.16;;;21.59;47.76
39267;BME280;24967;51.154;13.812;2023-05-25T11:08:49;100314.34;;;21.73;48.89
39267;BME280;24967;51.154;13.812;2023-05-25T11:11:16;100314.34;;;21.80;43.96
39267;BME280;24967;51.154;13.812;2023-05-25T11:13:45;100316.28;;;22.06;44.11
39267;BME280;24967;51.154;13.812;2023-05-25T11:16:18;100313.81;;;22.38;42.10
39267;BME280;24967;51.154;13.812;2023-05-25T11:18:51;100313.38;;;22.68;43.42
39267;BME280;24967;51.154;13.812;2023-05-25T11:24:10;100298.81;;;22.35;46.10
39267;BME280;24967;51.154;13.812;2023-05-25T11:26:51;100299.13;;;22.92;44.32
39267;BME280;24967;51.154;13.812;2023-05-25T11:29:21;100294.44;;;22.54;42.40
39267;BME280;24967;51.154;13.812;2023-05-25T11:31:51;100301.22;;;22.83;42.13
39267;BME280;24967;51.154;13.812;2023-05-25T11:34:21;100300.25;;;22.38;41.77
39267;BME280;24967;51.154;13.812;2023-05-25T11:37:03;100313.41;;;22.21;43.60
39267;BME280;24967;51.154;13.812;2023-05-25T11:39:38;100299.41;;;22.11;45.63
39267;BME280;24967;51.154;13.812;2023-05-25T11:42:05;100301.31;;;22.24;44.61
39267;BME280;24967;51.154;13.812;2023-05-25T11:44:49;100302.09;;;22.77;45.10
39267;BME280;24967;51.154;13.812;2023-05-25T11:47:21;100304.97;;;22.89;41.68
39267;BME280;24967;51.154;13.812;2023-05-25T11:49:49;100288.56;;;22.51;41.59
39267;BME280;24967;51.154;13.812;2023-05-25T11:52:21;100292.69;;;22.86;41.22
39267;BME280;24967;51.154;13.812;2023-05-25T11:54:56;100280.22;;;22.66;42.73
39267;BME280;24967;51.154;13.812;2023-05-25T11:57:29;100284.75;;;22.98;39.83
39267;BME280;24967;51.154;13.812;2023-05-25T12:03:00;100281.81;;;23.06;42.03
39267;BME280;24967;51.154;13.812;2023-05-25T12:08:34;100287.88;;;23.47;42.49
39267;BME280;24967;51.154;13.812;2023-05-25T12:11:02;100288.94;;;22.81;40.92
39267;BME280;24967;51.154;13.812;2023-05-25T12:13:29;100282.91;;;22.79;43.22
39267;BME280;24967;51.154;13.812;2023-05-25T12:15:56;100281.63;;;23.01;41.00
39267;BME280;24967;51.154;13.812;2023-05-25T12:18:26;100276.41;;;22.86;42.50
39267;BME280;24967;51.154;13.812;2023-05-25T12:20:53;100272.38;;;23.16;42.96
39267;BME280;24967;51.154;13.812;2023-05-25T12:23:21;100271.44;;;23.35;41.85
39267;BME280;24967;51.154;13.812;2023-05-25T12:25:47;100272.56;;;23.59;40.03
39267;BME280;24967;51.154;13.812;2023-05-25T12:28:15;100265.66;;;23.70;40.14
39267;BME280;24967;51.154;13.812;2023-05-25T12:30:42;100265.34;;;23.46;37.87
39267;BME280;24967;51.154;13.812;2023-05-25T12:33:11;100253.72;;;23.32;40.07
39267;BME280;24967;51.154;13.812;2023-05-25T12:35:46;100257.59;;;23.50;43.27
39267;BME280;24967;51.154;13.812;2023-05-25T12:38:15;100254.25;;;23.54;41.65
39267;BME280;24967;51.154;13.812;2023-05-25T12:40:41;100254.81;;;23.70;41.11
39267;BME280;24967;51.154;13.812;2023-05-25T12:43:09;100257.41;;;23.83;39.45
39267;BME280;24967;51.154;13.812;2023-05-25T12:45:38;100249.41;;;23.57;39.37
39267;BME280;24967;51.154;13.812;2023-05-25T12:48:06;100248.94;;;23.73;38.92
39267;BME280;24967;51.154;13.812;2023-05-25T12:50:32;100248.38;;;23.89;39.38
39267;BME280;24967;51.154;13.812;2023-05-25T12:53:01;100238.53;;;23.70;41.27
39267;BME280;24967;51.154;13.812;2023-05-25T12:55:28;100243.22;;;23.81;38.69
39267;BME280;24967;51.154;13.812;2023-05-25T12:57:56;100244.59;;;23.97;38.57
39267;BME280;24967;51.154;13.812;2023-05-25T13:00:24;100237.03;;;23.99;38.99